createdAt,value
2019-04-26T00:02:16.719Z,5.55
2019-04-26T00:05:20.214Z,3.90
2019-04-26T00:08:24.027Z,8.80
2019-04-26T00:11:50.064Z,3.33
2019-04-26T00:15:27.219Z,6.55
2019-04-26T00:18:30.645Z,7.37
2019-04-26T00:21:34.055Z,4.62
2019-04-26T00:24:37.635Z,6.15
2019-04-26T00:27:41.055Z,5.22
2019-04-26T00:30:44.520Z,6.60
2019-04-26T00:33:47.827Z,10.55
2019-04-26T00:36:51.260Z,8.70
2019-04-26T00:39:54.624Z,9.85
2019-04-26T00:42:58.863Z,9.15
2019-04-26T00:46:03.055Z,9.43
2019-04-26T00:49:08.707Z,8.53
2019-04-26T00:52:14.624Z,9.58
2019-04-26T00:55:20.084Z,8.75
2019-04-26T00:58:24.488Z,7.78
2019-04-26T01:01:29.740Z,8.75
2019-04-26T01:04:33.290Z,15.10
2019-04-26T01:07:36.931Z,7.50
2019-04-26T01:10:40.394Z,9.88
2019-04-26T01:13:43.804Z,7.90
2019-04-26T01:16:47.295Z,9.55
2019-04-26T01:19:53.776Z,7.62
2019-04-26T01:23:00.387Z,7.05
2019-04-26T01:26:16.916Z,13.18
2019-04-26T01:29:21.988Z,12.10
2019-04-26T01:32:27.014Z,13.83
2019-04-26T01:35:30.736Z,15.35
2019-04-26T01:38:34.558Z,14.70
2019-04-26T01:41:46.105Z,13.60
2019-04-26T01:45:27.948Z,13.80
2019-04-26T01:48:44.301Z,11.70
2019-04-26T01:51:54.260Z,13.60
2019-04-26T01:54:58.515Z,19.12
2019-04-26T01:58:05.405Z,20.85
2019-04-26T02:01:16.947Z,17.55
2019-04-26T02:04:22.453Z,17.77
2019-04-26T02:07:38.676Z,23.32
2019-04-26T02:10:41.939Z,24.00
2019-04-26T02:13:45.472Z,19.87
2019-04-26T02:16:48.835Z,23.95
2019-04-26T02:19:52.139Z,27.58
2019-04-26T02:23:10.872Z,25.15
2019-04-26T02:26:37.540Z,27.37
2019-04-26T02:29:41.831Z,24.12
2019-04-26T02:32:45.364Z,28.50
2019-04-26T02:35:48.771Z,27.67
2019-04-26T02:38:54.016Z,33.88
2019-04-26T02:42:01.556Z,26.77
2019-04-26T02:45:30.959Z,29.37
2019-04-26T02:48:52.659Z,31.33
2019-04-26T02:52:32.990Z,29.92
2019-04-26T02:56:04.453Z,33.13
2019-04-26T02:59:40.100Z,31.97
2019-04-26T03:02:44.925Z,32.33
2019-04-26T03:05:49.296Z,33.78
2019-04-26T03:08:54.311Z,35.73
2019-04-26T03:12:02.281Z,35.05
2019-04-26T03:15:28.342Z,34.20
2019-04-26T03:19:00.159Z,35.08
2019-04-26T03:22:33.337Z,34.65
2019-04-26T03:25:47.723Z,38.42
2019-04-26T03:29:29.723Z,39.25
2019-04-26T03:33:10.602Z,46.75
2019-04-26T03:36:42.836Z,44.90
2019-04-26T03:40:07.893Z,39.00
2019-04-26T03:43:24.766Z,46.50
2019-04-26T03:46:52.259Z,44.35
2019-04-26T03:50:12.908Z,38.92
2019-04-26T03:53:54.740Z,51.00
2019-04-26T03:57:16.968Z,44.93
2019-04-26T04:00:42.596Z,43.60
2019-04-26T04:03:58.993Z,42.45
2019-04-26T04:07:05.851Z,45.95
2019-04-26T04:10:14.621Z,48.38
2019-04-26T04:13:51.443Z,43.98
2019-04-26T04:17:30.181Z,49.15
2019-04-26T04:21:04.932Z,45.88
2019-04-26T04:24:11.892Z,42.27
2019-04-26T04:27:27.726Z,48.68
2019-04-26T04:30:56.867Z,42.48
2019-04-26T04:34:20.253Z,53.92
2019-04-26T04:37:27.675Z,51.42
2019-04-26T04:41:08.678Z,46.05
2019-04-26T04:45:00.057Z,53.60
2019-04-26T04:48:34.656Z,50.30
2019-04-26T04:52:27.423Z,49.38
2019-04-26T04:55:45.220Z,42.85
2019-04-26T04:58:53.441Z,45.40
2019-04-26T05:02:56.225Z,43.63
2019-04-26T05:06:26.401Z,46.45
2019-04-26T05:09:38.331Z,43.30
2019-04-26T05:13:23.135Z,44.73
2019-04-26T05:16:57.763Z,44.08
2019-04-26T05:20:25.062Z,42.65
2019-04-26T05:24:07.541Z,41.65
2019-04-26T05:27:36.847Z,45.38
2019-04-26T05:31:24.964Z,44.93
2019-04-26T05:34:39.022Z,43.00
2019-04-26T05:37:59.734Z,44.25
2019-04-26T05:41:55.697Z,44.42
2019-04-26T05:45:46.783Z,46.60
2019-04-26T05:50:00.013Z,38.58
2019-04-26T05:54:12.845Z,41.68
2019-04-26T05:57:43.813Z,36.58
2019-04-26T06:01:20.769Z,39.45
2019-04-26T06:05:19.046Z,34.63
2019-04-26T06:09:04.843Z,47.33
2019-04-26T06:12:44.624Z,40.60
2019-04-26T06:16:02.540Z,41.90
2019-04-26T06:19:26.019Z,51.53
2019-04-26T06:22:59.710Z,30.75
2019-04-26T06:26:40.519Z,35.88
2019-04-26T06:29:56.727Z,33.60
2019-04-26T06:33:24.606Z,34.40
2019-04-26T06:36:39.193Z,29.18
2019-04-26T06:40:05.804Z,32.48
2019-04-26T06:43:36.007Z,25.37
2019-04-26T06:47:16.412Z,29.77
2019-04-26T06:50:34.296Z,31.87
2019-04-26T06:54:10.239Z,25.08
2019-04-26T06:58:25.579Z,30.37
2019-04-26T07:01:59.156Z,30.35
2019-04-26T07:05:25.233Z,24.67
2019-04-26T07:08:57.574Z,22.60
2019-04-26T07:12:33.747Z,23.27
2019-04-26T07:16:19.686Z,29.12
2019-04-26T07:20:01.409Z,26.07
2019-04-26T07:23:51.399Z,34.05
2019-04-26T07:27:16.509Z,24.82
2019-04-26T07:30:47.637Z,24.32
2019-04-26T07:35:00.966Z,27.27
2019-04-26T07:38:51.587Z,27.32
2019-04-26T07:42:35.692Z,24.95
2019-04-26T07:45:54.826Z,30.43
2019-04-26T07:49:47.500Z,28.40
2019-04-26T07:53:49.657Z,30.77
2019-04-26T07:57:22.995Z,18.40
2019-04-26T08:00:44.573Z,22.70
2019-04-26T08:03:55.461Z,23.05
2019-04-26T08:07:08.228Z,28.73
2019-04-26T08:10:16.495Z,23.45
2019-04-26T08:13:22.012Z,21.45
2019-04-26T08:16:54.322Z,19.40
2019-04-26T08:20:51.044Z,18.12
2019-04-26T08:24:06.123Z,19.80
2019-04-26T08:27:23.272Z,23.18
2019-04-26T08:30:25.092Z,24.47
2019-04-26T08:33:35.250Z,23.35
2019-04-26T08:36:47.171Z,23.22
2019-04-26T08:39:52.131Z,21.10
2019-04-26T08:43:14.207Z,25.02
2019-04-26T08:46:49.544Z,19.32
2019-04-26T08:49:56.919Z,26.55
2019-04-26T08:53:02.723Z,19.45
2019-04-26T08:56:08.249Z,18.87
2019-04-26T08:59:19.820Z,20.55
2019-04-26T09:02:45.960Z,17.87
2019-04-26T09:06:13.022Z,23.00
2019-04-26T09:09:23.105Z,21.73
2019-04-26T09:12:29.183Z,15.18
2019-04-26T09:16:08.448Z,17.15
2019-04-26T09:19:12.072Z,15.30
2019-04-26T09:22:26.536Z,14.00
2019-04-26T09:25:38.985Z,16.15
2019-04-26T09:29:02.112Z,21.30
2019-04-26T09:32:29.255Z,30.68
2019-04-26T09:35:33.068Z,17.45
2019-04-26T09:38:36.661Z,14.35
2019-04-26T09:41:40.247Z,22.45
2019-04-26T09:44:56.945Z,15.55
2019-04-26T09:48:11.598Z,17.77
2019-04-26T09:51:16.617Z,18.07
2019-04-26T09:54:20.083Z,20.48
2019-04-26T09:57:23.696Z,18.45
2019-04-26T10:00:28.683Z,13.75
2019-04-26T10:03:34.429Z,15.70
2019-04-26T10:06:38.052Z,21.87
2019-04-26T10:09:41.585Z,16.62
2019-04-26T10:12:55.513Z,10.35
2019-04-26T10:16:20.970Z,14.78
2019-04-26T10:19:52.615Z,15.00
2019-04-26T10:22:56.228Z,14.70
2019-04-26T10:25:59.792Z,24.20
2019-04-26T10:29:03.518Z,10.48
2019-04-26T10:32:07.212Z,16.27
2019-04-26T10:35:10.644Z,21.95
2019-04-26T10:38:14.148Z,16.48
2019-04-26T10:41:17.629Z,18.32
2019-04-26T10:44:22.447Z,17.75
2019-04-26T10:47:26.082Z,11.25
2019-04-26T10:50:33.109Z,15.00
2019-04-26T10:54:08.105Z,15.38
2019-04-26T10:57:28.124Z,19.35
2019-04-26T11:00:36.661Z,18.45
2019-04-26T11:03:40.220Z,12.53
2019-04-26T11:06:43.791Z,15.05
2019-04-26T11:09:47.212Z,13.48
2019-04-26T11:12:50.792Z,14.00
2019-04-26T11:15:54.164Z,10.55
2019-04-26T11:19:01.066Z,16.05
2019-04-26T11:22:03.074Z,14.07
2019-04-26T11:25:06.963Z,13.25
2019-04-26T11:28:10.399Z,16.87
2019-04-26T11:31:13.967Z,20.10
2019-04-26T11:34:19.263Z,17.52
2019-04-26T11:37:22.715Z,17.65
2019-04-26T11:40:26.136Z,31.68
2019-04-26T11:43:29.612Z,16.57
2019-04-26T11:46:44.242Z,19.30
2019-04-26T11:49:41.634Z,9.30
2019-04-26T11:52:43.695Z,10.25
2019-04-26T11:55:47.104Z,10.63
2019-04-26T11:58:52.545Z,12.78
2019-04-26T12:01:55.851Z,10.35
2019-04-26T12:05:07.755Z,12.03
2019-04-26T12:08:13.913Z,15.40
2019-04-26T12:11:19.020Z,9.85
2019-04-26T12:14:22.584Z,13.08
2019-04-26T12:17:27.133Z,12.85
2019-04-26T12:20:30.724Z,9.40
2019-04-26T12:23:34.219Z,20.90
2019-04-26T12:26:43.012Z,16.85
2019-04-26T12:29:44.211Z,12.75
2019-04-26T12:32:50.055Z,15.60
2019-04-26T12:35:57.016Z,18.15
2019-04-26T12:38:58.245Z,12.90
2019-04-26T12:42:03.191Z,18.57
2019-04-26T12:45:37.763Z,11.78
2019-04-26T12:48:40.767Z,20.85
2019-04-26T12:51:47.243Z,23.62
2019-04-26T12:54:49.595Z,23.52
2019-04-26T12:57:52.594Z,12.00
2019-04-26T13:00:57.165Z,14.50
2019-04-26T13:04:09.045Z,19.23
2019-04-26T13:07:23.421Z,11.33
2019-04-26T13:10:49.644Z,14.60
2019-04-26T13:14:08.643Z,16.97
2019-04-26T13:17:14.575Z,12.88
2019-04-26T13:20:17.575Z,13.25
2019-04-26T13:23:20.534Z,13.28
2019-04-26T13:26:23.563Z,15.45
2019-04-26T13:29:27.358Z,13.93
2019-04-26T13:32:31.280Z,11.83
2019-04-26T13:35:34.308Z,21.07
2019-04-26T13:38:39.427Z,16.80
2019-04-26T13:41:42.059Z,12.07
2019-04-26T13:44:55.516Z,13.50
2019-04-26T13:48:23.747Z,15.65
2019-04-26T13:51:27.947Z,20.35
2019-04-26T13:54:31.217Z,12.75
2019-04-26T13:57:34.326Z,10.30
2019-04-26T14:00:39.771Z,12.90
2019-04-26T14:03:42.148Z,15.25
2019-04-26T14:06:45.083Z,15.65
2019-04-26T14:09:48.053Z,12.68
2019-04-26T14:12:51.347Z,10.95
2019-04-26T14:15:54.316Z,10.85
2019-04-26T14:18:57.292Z,13.80
2019-04-26T14:22:03.228Z,10.48
2019-04-26T14:25:11.172Z,12.00
2019-04-26T14:28:13.425Z,9.23
2019-04-26T14:31:18.040Z,9.65
2019-04-26T14:34:21.156Z,6.37
2019-04-26T14:37:24.157Z,9.25
2019-04-26T14:40:27.070Z,6.05
2019-04-26T14:43:40.645Z,16.07
2019-04-26T14:46:34.743Z,7.58
2019-04-26T14:49:39.189Z,11.93
2019-04-26T14:52:42.459Z,12.73
2019-04-26T14:55:45.416Z,9.88
2019-04-26T14:58:48.468Z,6.92
2019-04-26T15:02:13.341Z,7.80
2019-04-26T15:05:43.115Z,12.78
2019-04-26T15:08:46.926Z,8.63
2019-04-26T15:11:54.143Z,8.75
2019-04-26T15:14:56.676Z,9.30
2019-04-26T15:17:59.418Z,5.50
2019-04-26T15:21:04.218Z,5.53
2019-04-26T15:24:07.313Z,6.33
2019-04-26T15:27:10.278Z,8.93
2019-04-26T15:30:13.435Z,8.00
2019-04-26T15:33:16.479Z,7.70
2019-04-26T15:36:19.826Z,8.68
2019-04-26T15:39:34.542Z,11.45
2019-04-26T15:43:00.823Z,5.35
2019-04-26T15:46:15.211Z,10.70
2019-04-26T15:49:37.219Z,8.78
2019-04-26T15:52:43.662Z,7.50
2019-04-26T15:55:47.260Z,9.88
2019-04-26T15:58:52.227Z,7.75
2019-04-26T16:01:56.400Z,7.25
2019-04-26T16:05:00.103Z,6.92
2019-04-26T16:08:04.580Z,5.25
2019-04-26T16:11:11.442Z,6.12
2019-04-26T16:14:13.570Z,7.15
2019-04-26T16:17:16.607Z,9.53
2019-04-26T16:20:20.023Z,6.65
2019-04-26T16:23:24.225Z,12.80
2019-04-26T16:26:27.740Z,12.90
2019-04-26T16:29:50.826Z,7.53
2019-04-26T16:33:10.830Z,5.28
2019-04-26T16:36:14.200Z,10.15
2019-04-26T16:39:17.794Z,12.70
2019-04-26T16:42:23.310Z,13.80
2019-04-26T16:45:27.587Z,7.55
2019-04-26T16:48:31.019Z,10.55
2019-04-26T16:51:34.479Z,16.80
2019-04-26T16:54:37.984Z,9.38
2019-04-26T16:57:43.905Z,7.65
2019-04-26T17:04:04.696Z,10.25
2019-04-26T17:07:08.000Z,15.93
2019-04-26T17:10:12.117Z,7.17
2019-04-26T17:13:15.748Z,9.40
2019-04-26T17:16:18.874Z,17.02
2019-04-26T17:19:22.769Z,14.05
2019-04-26T17:22:59.087Z,19.23
2019-04-26T17:30:03.915Z,19.05
2019-04-26T17:33:08.985Z,15.90
2019-04-26T17:36:15.688Z,13.38
2019-04-26T17:39:18.500Z,20.77
2019-04-26T17:42:25.268Z,19.42
2019-04-26T17:45:27.484Z,19.98
2019-04-26T17:48:33.585Z,25.20
2019-04-26T17:51:43.728Z,23.50
2019-04-26T17:54:46.657Z,17.62
2019-04-26T17:57:48.451Z,24.82
2019-04-26T18:00:51.531Z,30.62
2019-04-26T18:03:55.940Z,28.23
2019-04-26T18:07:03.882Z,24.92
2019-04-26T18:10:06.406Z,27.87
2019-04-26T18:13:16.398Z,18.77
2019-04-26T18:16:17.816Z,26.93
2019-04-26T18:19:42.767Z,23.80
2019-04-26T18:22:59.439Z,21.37
2019-04-26T18:26:03.310Z,28.65
2019-04-26T18:29:06.772Z,31.25
2019-04-26T18:32:10.131Z,31.45
2019-04-26T18:35:16.646Z,23.62
2019-04-26T18:38:18.573Z,29.30
2019-04-26T18:41:22.977Z,27.00
2019-04-26T18:44:36.229Z,20.72
2019-04-26T18:47:36.827Z,24.02
2019-04-26T18:50:40.364Z,22.30
2019-04-26T18:53:58.380Z,21.10
2019-04-26T18:57:03.230Z,19.17
2019-04-26T19:00:08.955Z,19.37
2019-04-26T19:03:15.980Z,14.95
2019-04-26T19:06:29.656Z,19.35
2019-04-26T19:09:26.360Z,22.02
2019-04-26T19:12:29.694Z,13.22
2019-04-26T19:15:45.918Z,15.85
2019-04-26T19:18:58.991Z,14.43
2019-04-26T19:22:03.456Z,17.45
2019-04-26T19:25:18.954Z,14.10
2019-04-26T19:28:13.587Z,15.80
2019-04-26T19:31:19.295Z,14.15
2019-04-26T19:34:26.038Z,16.40
2019-04-26T19:37:30.358Z,16.35
2019-04-26T19:40:32.760Z,17.15
2019-04-26T19:43:39.209Z,19.95
2019-04-26T19:46:53.654Z,17.85
2019-04-26T19:50:03.257Z,19.07
2019-04-26T19:53:17.684Z,18.12
2019-04-26T19:56:33.231Z,14.93
2019-04-26T19:59:36.643Z,21.52
2019-04-26T20:02:41.869Z,20.30
2019-04-26T20:05:45.532Z,16.70
2019-04-26T20:08:49.649Z,19.48
2019-04-26T20:11:57.996Z,19.80
2019-04-26T20:14:59.691Z,14.65
2019-04-26T20:18:03.990Z,26.12
2019-04-26T20:21:12.599Z,14.47
2019-04-26T20:24:12.815Z,18.25
2019-04-26T20:27:20.839Z,22.35
2019-04-26T20:30:38.851Z,16.93
2019-04-26T20:33:42.525Z,23.05
2019-04-26T20:36:47.797Z,16.02
2019-04-26T20:39:53.008Z,21.00
2019-04-26T20:43:01.662Z,22.27
2019-04-26T20:46:13.748Z,14.98
2019-04-26T20:49:09.145Z,18.80
2019-04-26T20:52:16.411Z,17.42
2019-04-26T20:55:17.887Z,19.27
2019-04-26T20:58:21.379Z,16.93
2019-04-26T21:01:24.720Z,14.33
2019-04-26T21:04:36.721Z,16.80
2019-04-26T21:12:14.809Z,9.75
2019-04-26T21:16:43.636Z,12.00
2019-04-26T21:20:17.370Z,9.18
2019-04-26T21:23:15.447Z,12.23
2019-04-26T21:26:42.445Z,9.40
2019-04-26T21:30:08.087Z,11.70
2019-04-26T21:33:35.891Z,8.95
2019-04-26T21:36:53.932Z,12.18
2019-04-26T21:40:22.729Z,9.98
2019-04-26T21:43:23.129Z,8.48
2019-04-26T21:46:28.883Z,8.05
2019-04-26T21:49:35.135Z,10.40
2019-04-26T21:52:38.067Z,12.18
2019-04-26T21:55:43.378Z,11.43
2019-04-26T21:58:46.815Z,9.05
2019-04-26T22:01:56.772Z,9.70
2019-04-26T22:04:56.756Z,7.05
2019-04-26T22:08:00.198Z,6.62
2019-04-26T22:11:03.763Z,7.22
2019-04-26T22:14:19.262Z,7.33
2019-04-26T22:22:06.894Z,7.67
2019-04-26T22:25:10.405Z,5.28
2019-04-26T22:28:13.532Z,6.37
2019-04-26T22:31:16.727Z,5.08
2019-04-26T22:34:19.987Z,6.72
2019-04-26T22:37:29.763Z,6.97
2019-04-26T22:40:28.789Z,8.95
2019-04-26T22:43:44.773Z,12.15
2019-04-26T22:47:09.885Z,14.20
2019-04-26T22:50:14.045Z,7.85
2019-04-26T22:53:21.602Z,9.18
2019-04-26T22:56:26.594Z,11.53
2019-04-26T22:59:31.377Z,9.30
2019-04-26T23:02:38.901Z,10.45
2019-04-26T23:05:43.277Z,13.13
2019-04-26T23:08:46.227Z,8.73
2019-04-26T23:11:55.646Z,10.03
2019-04-26T23:15:17.677Z,8.95
2019-04-26T23:18:46.402Z,9.25
2019-04-26T23:21:55.861Z,45.15
2019-04-26T23:24:58.384Z,35.55
2019-04-26T23:28:01.249Z,37.98
2019-04-26T23:31:09.147Z,30.02
2019-04-26T23:34:12.034Z,38.25
2019-04-26T23:37:14.881Z,35.20
2019-04-26T23:40:20.769Z,31.68
2019-04-26T23:43:25.555Z,35.20
2019-04-26T23:46:28.089Z,27.00
2019-04-26T23:49:33.459Z,38.20
2019-04-26T23:52:36.521Z,34.27
2019-04-26T23:55:43.359Z,27.15
2019-04-26T23:58:45.665Z,28.17
